Ridgeland, South Carolina
Current Conditions -  °F | °C
As of 11:56 AM on Friday 28 Nov 2014 (Local Time) from KNBC Reporting Station
Clear Clear  
Wind Chill: 44°   Ceiling: Unl
Heat Index: 47°   Visibility: 10mi
Dew Point: 25°   Wind: 6mph
Humidity: 42%   Direction: 60°ENE
Pressure: 30.39"   Gusts: NA
Location:  32.48°N, 80.98°W
Report Text: KNBC 281656Z AUTO 06005KT 10SM CLR 08/M04 A3039 RMK AO2 SLP292 T00831039
Loading
Personal Weather Stations






























Interactive Weather Map New forecast layout! Learn more

10-Day Weather Forecast

Advertisements
Track Severe Weather on mobile